Time;durP1;ratioP1;P1;durP2;ratioP2;P2;SDS_P1;SDS_P2;PMS_P1;PMS_P2;Temp;Humidity;BMP_temperature;BMP_pressure;BME280_temperature;BME280_humidity;BME280_pressure;Samples;Min_cycle;Max_cycle;Signal;HPM_P1;HPM_P2
2023/08/25 00:00:33;;;;;;;235.90;101.90;;;;;;;;;;5072040;28;20193;-54
2023/08/25 00:02:59;;;;;;;234.93;99.33;;;;;;;;;;5071559;28;20947;-54
2023/08/25 00:05:25;;;;;;;235.47;99.77;;;;;;;;;;5072255;28;20412;-54
2023/08/25 00:07:51;;;;;;;235.93;101.90;;;;;;;;;;5071841;28;20468;-54
2023/08/25 00:10:17;;;;;;;242.60;111.00;;;;;;;;;;5071703;28;20442;-56
2023/08/25 00:12:43;;;;;;;234.90;96.77;;;;;;;;;;5071888;28;20453;-54
2023/08/25 00:15:10;;;;;;;239.03;105.53;;;;;;;;;;5067936;28;20499;-54
2023/08/25 00:17:36;;;;;;;238.43;104.60;;;;;;;;;;5071827;28;20494;-53
2023/08/25 00:20:03;;;;;;;241.47;109.40;;;;;;;;;;5071639;28;20256;-53
2023/08/25 00:22:29;;;;;;;240.87;105.60;;;;;;;;;;5071527;28;20498;-53
2023/08/25 00:24:56;;;;;;;235.67;99.07;;;;;;;;;;5071735;28;20417;-53
2023/08/25 00:27:22;;;;;;;240.53;107.83;;;;;;;;;;5071746;28;20412;-54
2023/08/25 00:29:49;;;;;;;245.30;108.23;;;;;;;;;;5071815;28;20407;-53
2023/08/25 00:32:15;;;;;;;245.67;120.97;;;;;;;;;;5071564;28;20455;-53
2023/08/25 00:34:40;;;;;;;237.67;103.03;;;;;;;;;;5071672;28;20925;-53
2023/08/25 00:37:06;;;;;;;250.80;104.63;;;;;;;;;;5071442;28;20947;-54
2023/08/25 00:39:32;;;;;;;246.53;109.27;;;;;;;;;;5071882;28;20931;-55
2023/08/25 00:41:58;;;;;;;241.33;103.13;;;;;;;;;;5071390;28;20969;-54
2023/08/25 00:44:24;;;;;;;243.07;104.90;;;;;;;;;;5071522;28;20907;-55
2023/08/25 00:46:50;;;;;;;238.17;96.23;;;;;;;;;;5071491;28;20964;-53
2023/08/25 00:49:16;;;;;;;243.47;108.67;;;;;;;;;;5076253;28;20410;-54
2023/08/25 00:51:42;;;;;;;247.67;110.27;;;;;;;;;;5070977;28;20823;-53
2023/08/25 00:54:08;;;;;;;243.03;106.60;;;;;;;;;;5071422;28;20933;-53
2023/08/25 00:56:35;;;;;;;241.63;103.40;;;;;;;;;;5071415;28;20419;-53
2023/08/25 00:59:02;;;;;;;245.33;108.37;;;;;;;;;;5071542;28;20430;-53
2023/08/25 01:01:28;;;;;;;239.87;100.47;;;;;;;;;;5070674;28;20415;-53
2023/08/25 01:03:56;;;;;;;242.03;105.07;;;;;;;;;;5070908;28;20429;-54
2023/08/25 01:06:22;;;;;;;239.90;103.17;;;;;;;;;;5070762;28;20412;-55
2023/08/25 01:08:48;;;;;;;236.37;96.83;;;;;;;;;;5071329;28;20775;-52
2023/08/25 01:11:33;;;;;;;236.13;97.97;;;;;;;;;;5071141;28;20460;-53
2023/08/25 01:14:19;;;;;;;237.10;98.27;;;;;;;;;;5065905;28;20424;-53
2023/08/25 01:16:48;;;;;;;238.80;100.60;;;;;;;;;;5074490;28;20409;-53
2023/08/25 01:19:40;;;;;;;234.17;96.97;;;;;;;;;;5075506;28;20771;-54
2023/08/25 01:22:07;;;;;;;237.77;100.03;;;;;;;;;;5071772;28;20502;-53
2023/08/25 01:24:35;;;;;;;236.13;97.72;;;;;;;;;;5075052;28;20801;-53
2023/08/25 01:27:04;;;;;;;235.18;98.13;;;;;;;;;;5075085;28;20185;-54
2023/08/25 01:29:30;;;;;;;237.47;101.17;;;;;;;;;;5075005;28;20171;-53
2023/08/25 01:31:56;;;;;;;245.30;113.40;;;;;;;;;;5074687;28;20873;-54
2023/08/25 01:34:24;;;;;;;245.80;113.80;;;;;;;;;;5074888;28;20403;-53
2023/08/25 01:36:53;;;;;;;238.33;106.03;;;;;;;;;;5074900;28;20158;-54
2023/08/25 01:39:19;;;;;;;238.68;106.78;;;;;;;;;;5074794;28;20409;-55
2023/08/25 01:41:46;;;;;;;236.83;106.67;;;;;;;;;;5074466;28;20189;-53
2023/08/25 01:44:14;;;;;;;236.73;106.33;;;;;;;;;;5074904;28;20444;-54
2023/08/25 01:46:41;;;;;;;232.20;95.87;;;;;;;;;;5074655;28;20406;-54
2023/08/25 01:49:07;;;;;;;231.57;95.60;;;;;;;;;;5074834;28;20774;-53
2023/08/25 01:51:34;;;;;;;233.13;100.27;;;;;;;;;;5074153;28;20459;-54
2023/08/25 01:54:00;;;;;;;233.43;100.57;;;;;;;;;;5074395;28;20933;-55
2023/08/25 01:56:26;;;;;;;236.77;106.83;;;;;;;;;;5074513;28;20447;-53
2023/08/25 01:58:52;;;;;;;233.37;101.67;;;;;;;;;;5074570;28;20892;-53
2023/08/25 02:01:18;;;;;;;236.23;104.77;;;;;;;;;;5074343;28;20430;-53
2023/08/25 02:03:44;;;;;;;233.93;96.90;;;;;;;;;;5074350;28;20436;-53
2023/08/25 02:06:10;;;;;;;234.03;105.47;;;;;;;;;;5074344;28;20436;-53
2023/08/25 02:08:36;;;;;;;234.47;105.63;;;;;;;;;;5074197;28;20917;-53
2023/08/25 02:11:02;;;;;;;231.17;101.67;;;;;;;;;;5073947;28;20851;-54
2023/08/25 02:13:28;;;;;;;257.83;127.60;;;;;;;;;;5073864;28;20420;-55
2023/08/25 02:15:54;;;;;;;236.97;109.73;;;;;;;;;;5074442;28;20950;-55
2023/08/25 02:18:20;;;;;;;231.82;100.95;;;;;;;;;;5074493;28;20414;-53
2023/08/25 02:20:46;;;;;;;237.53;109.00;;;;;;;;;;5074085;28;20578;-55
2023/08/25 02:23:12;;;;;;;237.50;110.03;;;;;;;;;;5074136;28;20421;-53
2023/08/25 02:25:38;;;;;;;230.80;96.82;;;;;;;;;;5073386;28;20402;-53
2023/08/25 02:28:05;;;;;;;231.57;99.93;;;;;;;;;;5074110;28;20169;-53
2023/08/25 02:30:31;;;;;;;236.60;104.07;;;;;;;;;;5074067;28;20916;-54
2023/08/25 02:32:57;;;;;;;229.27;93.50;;;;;;;;;;5074116;28;20425;-53
2023/08/25 02:35:22;;;;;;;229.13;95.80;;;;;;;;;;5074110;28;20880;-53
2023/08/25 02:37:59;;;;;;;233.13;101.97;;;;;;;;;;5074153;28;20410;-53
2023/08/25 02:40:26;;;;;;;235.03;103.60;;;;;;;;;;5073773;28;20492;-52
2023/08/25 02:42:52;;;;;;;235.27;106.60;;;;;;;;;;5074037;28;20425;-53
2023/08/25 02:45:18;;;;;;;235.23;106.30;;;;;;;;;;5073914;28;20392;-53
2023/08/25 02:47:44;;;;;;;233.80;103.87;;;;;;;;;;5073794;28;20223;-53
2023/08/25 02:50:10;;;;;;;229.20;91.17;;;;;;;;;;5073477;28;20404;-53
2023/08/25 02:52:36;;;;;;;237.30;102.20;;;;;;;;;;5073544;28;20456;-53
2023/08/25 02:55:02;;;;;;;229.23;89.53;;;;;;;;;;5073865;28;20794;-53
2023/08/25 02:57:28;;;;;;;228.50;89.97;;;;;;;;;;5073925;28;20823;-54
2023/08/25 02:59:54;;;;;;;236.77;95.20;;;;;;;;;;5073455;28;20404;-55
2023/08/25 03:02:20;;;;;;;230.57;90.40;;;;;;;;;;5073608;28;20428;-54
2023/08/25 03:04:46;;;;;;;236.17;102.40;;;;;;;;;;5073501;28;20404;-54
2023/08/25 03:07:12;;;;;;;230.63;90.57;;;;;;;;;;5073417;28;20407;-54
2023/08/25 03:09:38;;;;;;;232.87;93.07;;;;;;;;;;5073232;28;20405;-55
2023/08/25 03:12:04;;;;;;;230.50;91.43;;;;;;;;;;5073205;28;20602;-54
2023/08/25 03:14:30;;;;;;;231.95;98.63;;;;;;;;;;5073283;28;20404;-54
2023/08/25 03:16:56;;;;;;;233.87;101.23;;;;;;;;;;5073276;28;20165;-53
2023/08/25 03:19:22;;;;;;;235.87;102.60;;;;;;;;;;5073201;28;20413;-53
2023/08/25 03:21:47;;;;;;;232.17;98.90;;;;;;;;;;5072827;28;20509;-53
2023/08/25 03:24:13;;;;;;;236.47;105.13;;;;;;;;;;5072906;28;20446;-53
2023/08/25 03:26:39;;;;;;;238.43;109.97;;;;;;;;;;5073102;28;20457;-53
2023/08/25 03:29:05;;;;;;;237.60;107.57;;;;;;;;;;5073031;28;20938;-53
2023/08/25 03:31:32;;;;;;;234.47;103.83;;;;;;;;;;5073142;28;20483;-53
2023/08/25 03:33:58;;;;;;;236.87;103.47;;;;;;;;;;5072613;28;20427;-53
2023/08/25 03:36:24;;;;;;;233.53;100.53;;;;;;;;;;5072951;28;20853;-53
2023/08/25 03:38:50;;;;;;;236.37;106.43;;;;;;;;;;5072821;28;20393;-54
2023/08/25 03:41:16;;;;;;;233.40;101.47;;;;;;;;;;5072588;28;20410;-53
2023/08/25 03:43:42;;;;;;;232.37;97.17;;;;;;;;;;5072660;28;20418;-54
2023/08/25 03:46:08;;;;;;;236.73;108.10;;;;;;;;;;5072538;28;20404;-54
2023/08/25 03:48:34;;;;;;;240.90;107.63;;;;;;;;;;5072578;28;20915;-53
2023/08/25 03:51:00;;;;;;;231.43;96.27;;;;;;;;;;5073814;28;20907;-53
2023/08/25 03:53:26;;;;;;;231.77;97.47;;;;;;;;;;5092698;28;20517;-54
2023/08/25 03:55:52;;;;;;;232.03;95.23;;;;;;;;;;5092880;28;20411;-53
2023/08/25 03:58:18;;;;;;;229.00;88.30;;;;;;;;;;5092844;28;20407;-54
2023/08/25 04:00:44;;;;;;;231.77;93.07;;;;;;;;;;5092476;28;20396;-53
2023/08/25 04:03:09;;;;;;;229.70;88.67;;;;;;;;;;5092343;28;20434;-54
2023/08/25 04:05:35;;;;;;;232.23;97.80;;;;;;;;;;5092746;28;20418;-54
2023/08/25 04:08:02;;;;;;;233.07;101.37;;;;;;;;;;5092600;28;20488;-53
2023/08/25 04:10:28;;;;;;;233.57;103.63;;;;;;;;;;5092294;28;20391;-53
2023/08/25 04:12:53;;;;;;;241.47;114.47;;;;;;;;;;5092280;28;20489;-53
2023/08/25 04:15:21;;;;;;;238.47;108.53;;;;;;;;;;5092347;28;20407;-53
2023/08/25 04:17:47;;;;;;;230.77;93.82;;;;;;;;;;5092263;28;20410;-54
2023/08/25 04:20:14;;;;;;;230.47;96.53;;;;;;;;;;5092192;28;20172;-52
2023/08/25 04:22:43;;;;;;;230.65;94.97;;;;;;;;;;5092463;28;20846;-54
2023/08/25 04:25:09;;;;;;;227.70;89.23;;;;;;;;;;5092339;28;20184;-53
2023/08/25 04:27:36;;;;;;;228.07;92.20;;;;;;;;;;5092649;28;20413;-53
2023/08/25 04:30:02;;;;;;;228.43;91.20;;;;;;;;;;5092001;28;20405;-53
2023/08/25 04:32:29;;;;;;;232.63;97.33;;;;;;;;;;5091956;28;20207;-53
2023/08/25 04:34:55;;;;;;;231.30;95.70;;;;;;;;;;5092158;28;20399;-53
2023/08/25 04:37:21;;;;;;;232.20;94.70;;;;;;;;;;5092191;28;20403;-54
2023/08/25 04:39:47;;;;;;;236.77;100.57;;;;;;;;;;5091835;28;20422;-54
2023/08/25 04:42:13;;;;;;;234.63;98.30;;;;;;;;;;5092389;28;20423;-54
2023/08/25 04:44:39;;;;;;;229.00;93.77;;;;;;;;;;5091930;28;20403;-53
2023/08/25 04:47:05;;;;;;;227.40;90.73;;;;;;;;;;5091827;28;20434;-53
2023/08/25 04:49:31;;;;;;;230.00;94.00;;;;;;;;;;5091819;28;20486;-53
2023/08/25 04:51:58;;;;;;;232.70;99.07;;;;;;;;;;5081853;28;20546;-54
2023/08/25 04:54:24;;;;;;;227.23;88.80;;;;;;;;;;5071792;28;20404;-53
2023/08/25 04:56:50;;;;;;;232.10;96.53;;;;;;;;;;5068550;28;20775;-53
2023/08/25 04:59:16;;;;;;;231.77;97.80;;;;;;;;;;5071361;28;20407;-55
2023/08/25 05:01:42;;;;;;;233.97;102.87;;;;;;;;;;5074087;28;20905;-53
2023/08/25 05:04:08;;;;;;;232.17;97.47;;;;;;;;;;5071353;28;20420;-53
2023/08/25 05:06:35;;;;;;;234.97;102.97;;;;;;;;;;5071128;28;20427;-53
2023/08/25 05:09:00;;;;;;;231.23;96.68;;;;;;;;;;5070993;28;20446;-53
2023/08/25 05:11:26;;;;;;;233.50;99.00;;;;;;;;;;5070485;28;20204;-53
2023/08/25 05:13:52;;;;;;;235.67;102.63;;;;;;;;;;5070541;28;20460;-52
2023/08/25 05:16:19;;;;;;;233.40;103.53;;;;;;;;;;5070731;28;20418;-53
2023/08/25 05:18:45;;;;;;;236.10;105.68;;;;;;;;;;5070952;28;20814;-54
2023/08/25 05:21:11;;;;;;;233.07;102.87;;;;;;;;;;5070744;28;20533;-53
2023/08/25 05:23:37;;;;;;;240.90;113.90;;;;;;;;;;5071066;28;20427;-53
2023/08/25 05:26:04;;;;;;;232.03;100.50;;;;;;;;;;5071173;28;20422;-53
2023/08/25 05:28:29;;;;;;;236.17;105.57;;;;;;;;;;5071057;28;20407;-53
2023/08/25 05:30:55;;;;;;;235.03;107.53;;;;;;;;;;5071122;28;20413;-53
2023/08/25 05:33:22;;;;;;;239.40;109.47;;;;;;;;;;5070613;28;20455;-54
2023/08/25 05:35:48;;;;;;;233.17;101.57;;;;;;;;;;5070565;28;20411;-53
2023/08/25 05:38:14;;;;;;;236.63;106.77;;;;;;;;;;5070627;28;20414;-53
2023/08/25 05:40:40;;;;;;;232.07;104.63;;;;;;;;;;5070931;28;20418;-52
2023/08/25 05:43:05;;;;;;;236.17;108.97;;;;;;;;;;5070930;28;20432;-53
2023/08/25 05:45:31;;;;;;;241.13;117.67;;;;;;;;;;5070726;28;20410;-52
2023/08/25 05:47:58;;;;;;;239.83;116.90;;;;;;;;;;5070940;28;20404;-53
2023/08/25 05:50:24;;;;;;;238.07;109.93;;;;;;;;;;5076041;28;20910;-54
2023/08/25 05:52:49;;;;;;;241.50;115.40;;;;;;;;;;5071125;28;20513;-54
2023/08/25 05:55:16;;;;;;;240.87;115.73;;;;;;;;;;5070789;28;20818;-54
2023/08/25 05:57:42;;;;;;;245.30;122.35;;;;;;;;;;5070679;28;20462;-54
2023/08/25 06:00:08;;;;;;;240.40;113.07;;;;;;;;;;5070602;28;20584;-53
2023/08/25 06:02:34;;;;;;;245.67;121.47;;;;;;;;;;5073735;28;20435;-54
2023/08/25 06:05:00;;;;;;;245.00;119.03;;;;;;;;;;5074379;28;20400;-54
2023/08/25 06:07:26;;;;;;;246.80;125.13;;;;;;;;;;5074307;28;20462;-54
2023/08/25 06:09:52;;;;;;;252.50;133.77;;;;;;;;;;5074151;28;20543;-53
2023/08/25 06:12:18;;;;;;;244.03;121.27;;;;;;;;;;5073920;28;20476;-53
2023/08/25 06:14:44;;;;;;;245.93;126.20;;;;;;;;;;5074232;28;20405;-53
2023/08/25 06:17:10;;;;;;;247.47;123.50;;;;;;;;;;5074346;28;20923;-53
2023/08/25 06:19:37;;;;;;;242.37;117.57;;;;;;;;;;5070009;28;20912;-53
2023/08/25 06:22:03;;;;;;;243.83;120.73;;;;;;;;;;5074095;28;20936;-53
2023/08/25 06:24:29;;;;;;;249.80;130.60;;;;;;;;;;5073985;28;20783;-53
2023/08/25 06:26:55;;;;;;;251.23;130.10;;;;;;;;;;5067811;28;20201;-53
2023/08/25 06:29:21;;;;;;;253.47;146.53;;;;;;;;;;5074036;28;20819;-53
2023/08/25 06:31:47;;;;;;;250.60;124.73;;;;;;;;;;5073572;28;20456;-53
2023/08/25 06:34:14;;;;;;;250.80;132.57;;;;;;;;;;5073876;28;20410;-53
2023/08/25 06:36:40;;;;;;;249.20;131.17;;;;;;;;;;5074176;28;20401;-53
2023/08/25 06:39:06;;;;;;;252.67;138.20;;;;;;;;;;5074727;28;20399;-53
2023/08/25 06:41:32;;;;;;;248.60;128.67;;;;;;;;;;5073796;28;20404;-55
2023/08/25 06:43:59;;;;;;;250.33;129.30;;;;;;;;;;5073606;28;20427;-53
2023/08/25 06:46:25;;;;;;;254.93;135.03;;;;;;;;;;5073763;28;20404;-54
2023/08/25 06:48:50;;;;;;;257.50;140.27;;;;;;;;;;5073626;28;20469;-54
2023/08/25 06:51:17;;;;;;;255.87;141.00;;;;;;;;;;5073023;28;20463;-54
2023/08/25 06:53:44;;;;;;;251.63;134.17;;;;;;;;;;5073360;28;20448;-54
2023/08/25 06:56:10;;;;;;;254.97;137.47;;;;;;;;;;5073453;28;20495;-53
2023/08/25 06:58:36;;;;;;;251.20;132.93;;;;;;;;;;5073652;28;20427;-54
2023/08/25 07:01:02;;;;;;;260.67;146.00;;;;;;;;;;5073295;28;20406;-53
2023/08/25 07:03:28;;;;;;;256.33;143.97;;;;;;;;;;5070788;28;20451;-54
2023/08/25 07:05:58;;;;;;;257.73;144.53;;;;;;;;;;5073190;28;20774;-54
2023/08/25 07:08:25;;;;;;;261.20;146.93;;;;;;;;;;5076493;28;20399;-55
2023/08/25 07:10:51;;;;;;;267.60;156.57;;;;;;;;;;5072731;28;20757;-51
2023/08/25 07:13:17;;;;;;;265.00;152.27;;;;;;;;;;5072961;28;20507;-52
2023/08/25 07:15:43;;;;;;;262.97;155.43;;;;;;;;;;5073106;28;20405;-51
2023/08/25 07:18:09;;;;;;;263.03;160.73;;;;;;;;;;5073070;28;20413;-53
2023/08/25 07:20:35;;;;;;;250.50;131.70;;;;;;;;;;5072809;28;20432;-54
2023/08/25 07:23:01;;;;;;;247.33;131.80;;;;;;;;;;5073477;28;20967;-51
2023/08/25 07:25:27;;;;;;;261.73;157.00;;;;;;;;;;5072841;28;20421;-52
2023/08/25 07:27:54;;;;;;;251.80;141.57;;;;;;;;;;5072783;28;20794;-52
2023/08/25 07:30:20;;;;;;;249.63;139.13;;;;;;;;;;5072629;28;20452;-51
2023/08/25 07:32:45;;;;;;;254.77;154.67;;;;;;;;;;5072441;28;20502;-52
2023/08/25 07:35:13;;;;;;;263.87;161.20;;;;;;;;;;5072340;28;20401;-51
2023/08/25 07:37:41;;;;;;;262.93;169.43;;;;;;;;;;5072478;28;20458;-52
2023/08/25 07:40:07;;;;;;;254.40;146.37;;;;;;;;;;5072151;28;20416;-53
2023/08/25 07:42:33;;;;;;;249.50;133.40;;;;;;;;;;5072232;28;20497;-52
2023/08/25 07:44:59;;;;;;;251.30;141.43;;;;;;;;;;5072358;28;20409;-54
2023/08/25 07:47:25;;;;;;;265.47;177.90;;;;;;;;;;5072470;28;20416;-52
2023/08/25 07:49:51;;;;;;;253.97;140.93;;;;;;;;;;5072116;28;20419;-51
2023/08/25 07:52:17;;;;;;;248.30;133.30;;;;;;;;;;5071822;28;20460;-52
2023/08/25 07:54:43;;;;;;;262.90;168.30;;;;;;;;;;5072400;28;20404;-52
2023/08/25 07:57:09;;;;;;;244.80;129.17;;;;;;;;;;5077614;28;20442;-51
2023/08/25 07:59:35;;;;;;;238.40;119.47;;;;;;;;;;5072673;28;20412;-51
2023/08/25 08:02:03;;;;;;;244.20;129.93;;;;;;;;;;5071956;28;20906;-51
2023/08/25 08:04:30;;;;;;;256.07;156.97;;;;;;;;;;5072014;28;20419;-52
2023/08/25 08:06:57;;;;;;;235.67;110.03;;;;;;;;;;5071943;28;20928;-51
2023/08/25 08:09:24;;;;;;;242.97;123.47;;;;;;;;;;5071928;28;20452;-54
2023/08/25 08:11:50;;;;;;;245.70;133.80;;;;;;;;;;5071637;28;20463;-52
2023/08/25 08:14:16;;;;;;;245.60;131.37;;;;;;;;;;5072005;28;20496;-51
2023/08/25 08:16:42;;;;;;;243.13;121.60;;;;;;;;;;5071972;28;20411;-51
2023/08/25 08:19:10;;;;;;;247.73;127.63;;;;;;;;;;5071951;28;20419;-52
2023/08/25 08:21:36;;;;;;;244.97;119.77;;;;;;;;;;5071453;28;20413;-51
2023/08/25 08:24:02;;;;;;;249.77;132.43;;;;;;;;;;5071292;28;20531;-51
2023/08/25 08:26:29;;;;;;;250.47;127.77;;;;;;;;;;5071576;28;20408;-51
2023/08/25 08:28:55;;;;;;;271.80;179.90;;;;;;;;;;5071812;28;20958;-54
2023/08/25 08:31:21;;;;;;;274.97;181.47;;;;;;;;;;5071397;28;20452;-52
2023/08/25 08:33:48;;;;;;;265.70;159.47;;;;;;;;;;5071601;28;20427;-54
2023/08/25 08:36:18;;;;;;;267.57;159.57;;;;;;;;;;5071884;28;20773;-51
2023/08/25 08:38:44;;;;;;;279.53;159.40;;;;;;;;;;5065762;28;20413;-53
2023/08/25 08:41:11;;;;;;;270.03;163.07;;;;;;;;;;5071369;28;20421;-54
2023/08/25 08:43:41;;;;;;;278.93;197.77;;;;;;;;;;5071462;28;20434;-52
2023/08/25 08:46:07;;;;;;;262.57;151.03;;;;;;;;;;5071655;28;20412;-52
2023/08/25 08:48:34;;;;;;;266.90;159.43;;;;;;;;;;5071811;28;20474;-54
2023/08/25 08:51:01;;;;;;;267.60;167.90;;;;;;;;;;5071134;28;20424;-53
2023/08/25 08:53:27;;;;;;;277.67;156.30;;;;;;;;;;5071319;28;20437;-52
2023/08/25 08:55:53;;;;;;;292.40;174.70;;;;;;;;;;5071595;28;20415;-52
2023/08/25 08:58:20;;;;;;;291.02;172.77;;;;;;;;;;5071288;28;20501;-52
2023/08/25 09:00:46;;;;;;;278.48;177.95;;;;;;;;;;5071122;28;20645;-54
2023/08/25 09:03:15;;;;;;;297.97;214.50;;;;;;;;;;5071007;28;20206;-55
2023/08/25 09:05:42;;;;;;;273.67;176.07;;;;;;;;;;5070647;28;20460;-53
2023/08/25 09:08:09;;;;;;;311.50;227.83;;;;;;;;;;5071681;28;20461;-53
2023/08/25 09:10:35;;;;;;;291.17;202.57;;;;;;;;;;5071345;28;20408;-55
2023/08/25 09:13:01;;;;;;;287.07;206.00;;;;;;;;;;5070350;28;20532;-53
2023/08/25 09:15:28;;;;;;;297.20;230.40;;;;;;;;;;5071361;28;20495;-53
2023/08/25 09:18:01;;;;;;;261.10;140.67;;;;;;;;;;5071351;28;20777;-54
2023/08/25 09:20:28;;;;;;;265.90;145.57;;;;;;;;;;5071213;28;20401;-53
2023/08/25 09:22:55;;;;;;;268.57;153.47;;;;;;;;;;5071247;28;20426;-55
2023/08/25 09:25:21;;;;;;;268.33;149.77;;;;;;;;;;5071243;28;20406;-53
2023/08/25 09:27:47;;;;;;;307.40;234.43;;;;;;;;;;5071348;28;20799;-53
2023/08/25 09:30:14;;;;;;;311.17;248.93;;;;;;;;;;5071007;28;20495;-53
2023/08/25 09:32:40;;;;;;;335.63;262.33;;;;;;;;;;5071198;28;20448;-54
2023/08/25 09:35:21;;;;;;;336.90;252.67;;;;;;;;;;5071262;28;20411;-54
2023/08/25 09:37:47;;;;;;;260.67;149.03;;;;;;;;;;5074624;28;20412;-54
2023/08/25 09:40:15;;;;;;;251.70;132.97;;;;;;;;;;5074832;28;20495;-55
2023/08/25 09:42:41;;;;;;;260.40;147.20;;;;;;;;;;5074804;28;20423;-53
2023/08/25 09:45:09;;;;;;;263.87;154.37;;;;;;;;;;5075105;28;20403;-53
2023/08/25 09:47:35;;;;;;;281.07;195.57;;;;;;;;;;5074779;28;20907;-53
2023/08/25 09:50:01;;;;;;;282.27;185.18;;;;;;;;;;5074898;28;20401;-54
2023/08/25 09:52:29;;;;;;;288.73;211.33;;;;;;;;;;5088421;28;20280;-55
2023/08/25 09:54:55;;;;;;;337.17;268.03;;;;;;;;;;5094974;28;20404;-54
2023/08/25 09:57:24;;;;;;;321.13;266.93;;;;;;;;;;5094915;28;20402;-57
2023/08/25 09:59:50;;;;;;;300.70;237.20;;;;;;;;;;5088099;28;20493;-55
2023/08/25 10:02:16;;;;;;;292.87;226.80;;;;;;;;;;5063216;28;20467;-54
2023/08/25 10:04:43;;;;;;;306.00;234.32;;;;;;;;;;5053276;28;20405;-54
2023/08/25 10:07:09;;;;;;;303.27;233.00;;;;;;;;;;5054688;28;20197;-53
2023/08/25 10:09:35;;;;;;;280.37;174.97;;;;;;;;;;5054396;28;20405;-55
2023/08/25 10:12:04;;;;;;;356.17;270.03;;;;;;;;;;5054116;28;21055;-54
2023/08/25 10:14:30;;;;;;;283.00;198.83;;;;;;;;;;5054420;28;20398;-55
2023/08/25 10:17:00;;;;;;;271.90;170.57;;;;;;;;;;5055093;28;20476;-53
2023/08/25 10:19:29;;;;;;;310.00;259.37;;;;;;;;;;5054461;28;20494;-53
2023/08/25 10:21:55;;;;;;;281.77;189.63;;;;;;;;;;5054175;28;20548;-52
2023/08/25 10:24:23;;;;;;;285.90;212.87;;;;;;;;;;5054042;28;20888;-55
2023/08/25 10:26:53;;;;;;;299.87;229.27;;;;;;;;;;5054201;28;20409;-54
2023/08/25 10:29:20;;;;;;;272.40;184.37;;;;;;;;;;5054186;28;20410;-55
2023/08/25 10:31:51;;;;;;;272.83;178.00;;;;;;;;;;5053861;28;20534;-54
2023/08/25 10:34:32;;;;;;;265.87;161.27;;;;;;;;;;5054147;28;20399;-53
2023/08/25 10:37:10;;;;;;;259.10;148.33;;;;;;;;;;5053922;28;20408;-55
2023/08/25 10:39:49;;;;;;;283.50;197.60;;;;;;;;;;5053637;28;20413;-53
2023/08/25 10:42:19;;;;;;;267.77;160.47;;;;;;;;;;5072605;28;20436;-53
2023/08/25 10:44:47;;;;;;;290.77;218.40;;;;;;;;;;5073833;28;20941;-50
2023/08/25 10:47:18;;;;;;;280.50;181.07;;;;;;;;;;5073349;28;20170;-50
2023/08/25 10:49:45;;;;;;;291.70;217.27;;;;;;;;;;5073541;28;20404;-52
2023/08/25 10:52:15;;;;;;;287.87;197.97;;;;;;;;;;5084980;28;20518;-49
2023/08/25 10:54:41;;;;;;;296.07;211.30;;;;;;;;;;5094092;28;20406;-50
2023/08/25 10:57:19;;;;;;;327.30;245.60;;;;;;;;;;5094038;28;20767;-50
2023/08/25 10:59:52;;;;;;;317.93;251.23;;;;;;;;;;5093430;28;20889;-50
2023/08/25 11:02:37;;;;;;;328.97;269.17;;;;;;;;;;5093740;28;20430;-50
2023/08/25 11:05:21;;;;;;;334.77;262.93;;;;;;;;;;5093690;28;20766;-49
2023/08/25 11:07:47;;;;;;;335.23;264.37;;;;;;;;;;5093552;28;20901;-52
2023/08/25 11:10:13;;;;;;;308.50;234.13;;;;;;;;;;5094111;28;20482;-50
2023/08/25 11:12:41;;;;;;;328.63;243.43;;;;;;;;;;5093486;28;20822;-50
2023/08/25 11:15:11;;;;;;;318.07;228.60;;;;;;;;;;5093549;28;20168;-49
2023/08/25 11:17:37;;;;;;;316.17;236.73;;;;;;;;;;5093648;28;20767;-49
2023/08/25 11:20:04;;;;;;;271.63;155.00;;;;;;;;;;5093325;28;20440;-49
2023/08/25 11:22:31;;;;;;;330.73;248.70;;;;;;;;;;5093298;28;20425;-49
2023/08/25 11:24:57;;;;;;;335.43;248.47;;;;;;;;;;5093008;28;20401;-49
2023/08/25 11:27:23;;;;;;;276.13;170.93;;;;;;;;;;5093260;28;20398;-49
2023/08/25 11:29:49;;;;;;;281.73;178.35;;;;;;;;;;5093135;28;20409;-49
2023/08/25 11:32:16;;;;;;;283.60;190.03;;;;;;;;;;5093166;28;20273;-49
2023/08/25 11:34:42;;;;;;;280.97;180.27;;;;;;;;;;5093107;28;20682;-51
2023/08/25 11:37:11;;;;;;;267.47;148.50;;;;;;;;;;5093075;28;20391;-49
2023/08/25 11:39:42;;;;;;;283.27;179.37;;;;;;;;;;5093213;28;20397;-52
2023/08/25 11:42:08;;;;;;;290.65;200.82;;;;;;;;;;5093042;28;20419;-49
2023/08/25 11:44:33;;;;;;;287.30;193.87;;;;;;;;;;5092922;28;20176;-49
2023/08/25 11:47:00;;;;;;;279.70;176.20;;;;;;;;;;5092936;28;20392;-49
2023/08/25 11:49:26;;;;;;;295.10;201.97;;;;;;;;;;5093623;28;20740;-49
2023/08/25 11:51:53;;;;;;;289.30;191.47;;;;;;;;;;5083218;28;20498;-50
2023/08/25 11:54:19;;;;;;;300.37;207.33;;;;;;;;;;5072565;28;20428;-50
2023/08/25 11:56:54;;;;;;;282.53;176.67;;;;;;;;;;5072468;28;20395;-50
2023/08/25 11:59:20;;;;;;;349.90;281.10;;;;;;;;;;5071728;28;20395;-50
2023/08/25 12:01:49;;;;;;;324.13;251.10;;;;;;;;;;5072138;28;20407;-50
2023/08/25 12:04:22;;;;;;;379.03;289.10;;;;;;;;;;5072218;28;20410;-50
2023/08/25 12:06:51;;;;;;;378.37;305.23;;;;;;;;;;5072669;28;20411;-50
2023/08/25 12:09:17;;;;;;;345.97;268.00;;;;;;;;;;5072231;28;20435;-51
2023/08/25 12:11:43;;;;;;;277.37;174.53;;;;;;;;;;5072235;28;20483;-50
2023/08/25 12:14:22;;;;;;;324.17;240.30;;;;;;;;;;5072171;28;20880;-50
2023/08/25 12:16:48;;;;;;;326.60;271.67;;;;;;;;;;5071924;28;20457;-52
2023/08/25 12:19:14;;;;;;;334.67;283.20;;;;;;;;;;5072165;28;20407;-51
2023/08/25 12:21:40;;;;;;;293.47;208.80;;;;;;;;;;5071696;28;20416;-52
2023/08/25 12:24:06;;;;;;;285.63;196.00;;;;;;;;;;5072059;28;20405;-50
2023/08/25 12:26:32;;;;;;;292.77;202.77;;;;;;;;;;5072028;28;20408;-50
2023/08/25 12:28:58;;;;;;;364.43;308.70;;;;;;;;;;5072044;28;20400;-51
2023/08/25 12:31:24;;;;;;;356.80;305.70;;;;;;;;;;5071632;28;20448;-51
2023/08/25 12:33:50;;;;;;;333.30;259.77;;;;;;;;;;5071738;28;20412;-50
2023/08/25 12:36:17;;;;;;;327.37;272.50;;;;;;;;;;5071959;28;20401;-52
2023/08/25 12:38:43;;;;;;;322.47;255.37;;;;;;;;;;5071893;28;20450;-51
2023/08/25 12:41:09;;;;;;;316.40;252.03;;;;;;;;;;5071774;28;20397;-51
2023/08/25 12:43:35;;;;;;;325.87;269.93;;;;;;;;;;5070649;28;20482;-51
2023/08/25 12:46:01;;;;;;;309.57;250.83;;;;;;;;;;5071614;28;20410;-51
2023/08/25 12:48:27;;;;;;;323.77;269.67;;;;;;;;;;5071727;28;20401;-51
2023/08/25 12:50:53;;;;;;;347.27;299.73;;;;;;;;;;5072064;28;20427;-51
2023/08/25 12:53:20;;;;;;;311.77;238.93;;;;;;;;;;5092000;28;20455;-52
2023/08/25 12:55:46;;;;;;;326.23;275.00;;;;;;;;;;5091825;28;20404;-52
2023/08/25 12:58:12;;;;;;;387.67;323.03;;;;;;;;;;5091935;28;20954;-52
2023/08/25 13:00:38;;;;;;;373.70;308.37;;;;;;;;;;5091444;28;20537;-53
2023/08/25 13:03:04;;;;;;;336.50;280.77;;;;;;;;;;5091753;28;20423;-51
2023/08/25 13:05:30;;;;;;;356.83;300.47;;;;;;;;;;5091687;28;20410;-51
2023/08/25 13:07:56;;;;;;;335.53;283.37;;;;;;;;;;5092305;28;20396;-53
2023/08/25 13:10:22;;;;;;;354.90;306.37;;;;;;;;;;5074230;28;20408;-51
2023/08/25 13:12:48;;;;;;;350.53;287.47;;;;;;;;;;5075591;28;20455;-51
2023/08/25 13:15:15;;;;;;;387.13;325.23;;;;;;;;;;5075285;28;20404;-51
2023/08/25 13:17:41;;;;;;;329.43;281.13;;;;;;;;;;5075617;28;20421;-51
2023/08/25 13:20:07;;;;;;;348.63;302.10;;;;;;;;;;5075293;28;20453;-51
2023/08/25 13:22:33;;;;;;;332.60;279.07;;;;;;;;;;5075509;28;20435;-51
2023/08/25 13:25:00;;;;;;;313.77;244.40;;;;;;;;;;5075422;28;20404;-52
2023/08/25 13:27:26;;;;;;;331.63;269.00;;;;;;;;;;5075351;28;20407;-53
2023/08/25 13:29:52;;;;;;;353.90;297.50;;;;;;;;;;5075199;28;20400;-51
2023/08/25 13:32:18;;;;;;;297.17;216.93;;;;;;;;;;5075144;28;20463;-52
2023/08/25 13:34:44;;;;;;;345.70;295.17;;;;;;;;;;5075120;28;20400;-51
2023/08/25 13:37:10;;;;;;;307.00;231.93;;;;;;;;;;5075373;28;20395;-51
2023/08/25 13:39:38;;;;;;;361.77;296.07;;;;;;;;;;5075302;28;20956;-51
2023/08/25 13:42:05;;;;;;;327.43;259.23;;;;;;;;;;5075118;28;20825;-51
2023/08/25 13:44:31;;;;;;;305.50;229.77;;;;;;;;;;5073625;28;20554;-51
2023/08/25 13:46:57;;;;;;;332.37;276.10;;;;;;;;;;5075107;28;20453;-51
2023/08/25 13:49:23;;;;;;;320.67;263.63;;;;;;;;;;5074968;28;20415;-51
2023/08/25 13:51:49;;;;;;;409.33;343.53;;;;;;;;;;5082915;28;20454;-51